Hundvaag 1 weather for May 1990
Month no. 35
Obs.
Da.
Temp. Dew Point Precip. Wind
Speed
Wind gusts Cloud cover Press. Humidity Wind dir. Sunny OPT
01.05.1990 10,4   0,1             1  
02.05.1990 8,1   0,0             1  
03.05.1990 7,3   0,0             1  
04.05.1990 8,1   0,0             1  
05.05.1990 10,0   0,0                
06.05.1990 12,6   0,0             1  
07.05.1990 9,8   0,0             1  
08.05.1990 14,8   0,0             1  
09.05.1990 9,8   0,1             1  
10.05.1990 11,2   1,4             1  
11.05.1990 10,3   0,0                
12.05.1990 9,6   3,3                
13.05.1990 12,3   2,5                
14.05.1990 10,0   6,7             1  
15.05.1990 9,0   2,3                
16.05.1990 8,9   0,0                
17.05.1990 10,1   0,0             1  
18.05.1990 7,7   0,0             1  
19.05.1990 12,7   0,0             1  
20.05.1990 12,6   0,0             1  
21.05.1990 7,5   0,0             1  
22.05.1990 7,1   0,0             1  
23.05.1990 6,9   9,3             1  
24.05.1990 10,1   7,0                
25.05.1990 7,2   0,0             1  
26.05.1990 7,4   2,0             1  
27.05.1990 7,0   0,0             1  
28.05.1990 7,8   0,0                
29.05.1990 8,1   0,0             1  
30.05.1990 10,4   0,0                
31.05.1990 10,7   3,2                
Avrg/Sum 9,5   37,9             21